Time;durP1;ratioP1;P1;durP2;ratioP2;P2;SDS_P1;SDS_P2;PMS_P1;PMS_P2;Temp;Humidity;BMP_temperature;BMP_pressure;BME280_temperature;BME280_humidity;BME280_pressure;Samples;Min_cycle;Max_cycle;Signal;HPM_P1;HPM_P2
2023/04/19 00:02:01;;;;;;;21.42;5.43;;;;;;;9.28;76.30;102175.72;5048463;28;20069;-50
2023/04/19 00:04:28;;;;;;;16.13;7.75;;;;;;;9.28;76.26;102175.72;5032065;28;20049;-47
2023/04/19 00:06:57;;;;;;;19.30;6.13;;;;;;;9.25;76.45;102176.31;5050937;28;20044;-47
2023/04/19 00:09:24;;;;;;;22.90;6.63;;;;;;;9.22;76.31;102182.44;5049797;28;20056;-48
2023/04/19 00:11:51;;;;;;;23.23;6.63;;;;;;;9.18;76.17;102183.06;5050508;28;20055;-48
2023/04/19 00:14:18;;;;;;;19.38;6.30;;;;;;;9.18;76.27;102187.78;5050920;28;20056;-55
2023/04/19 00:16:44;;;;;;;13.40;5.63;;;;;;;9.16;76.40;102188.06;5051037;28;20405;-48
2023/04/19 00:19:11;;;;;;;19.58;6.60;;;;;;;9.13;76.39;102185.88;5045046;28;20132;-47
2023/04/19 00:21:38;;;;;;;16.73;6.63;;;;;;;9.12;76.23;102180.69;5050795;28;20072;-48
2023/04/19 00:24:05;;;;;;;14.57;5.50;;;;;;;9.09;76.46;102182.09;5045459;28;20043;-47
2023/04/19 00:26:31;;;;;;;18.80;7.70;;;;;;;9.06;76.44;102173.59;5048485;28;20053;-47
2023/04/19 00:28:58;;;;;;;15.18;6.07;;;;;;;9.03;76.39;102169.47;5050645;28;20037;-46
2023/04/19 00:31:25;;;;;;;16.27;5.60;;;;;;;9.03;76.34;102169.47;5050767;28;20041;-47
2023/04/19 00:33:52;;;;;;;18.42;5.65;;;;;;;8.97;76.40;102153.31;5048659;28;20045;-47
2023/04/19 00:36:19;;;;;;;19.75;6.40;;;;;;;8.93;76.32;102153.06;5044874;28;20714;-50
2023/04/19 00:38:46;;;;;;;23.00;7.13;;;;;;;8.92;76.29;102140.38;5050523;28;20051;-47
2023/04/19 00:41:13;;;;;;;20.95;7.07;;;;;;;8.89;76.32;102141.00;5050527;28;20045;-46
2023/04/19 00:43:39;;;;;;;14.73;5.97;;;;;;;8.85;76.47;102137.19;5049273;28;20118;-47
2023/04/19 00:46:06;;;;;;;12.20;5.60;;;;;;;8.83;76.25;102135.84;5050222;28;20094;-47
2023/04/19 00:48:35;;;;;;;24.08;7.25;;;;;;;8.81;76.20;102127.88;5049262;28;20052;-47
2023/04/19 00:51:02;;;;;;;16.42;5.13;;;;;;;8.79;76.23;102132.84;5050615;28;20083;-47
2023/04/19 00:53:30;;;;;;;22.75;7.43;;;;;;;8.75;76.23;102125.47;5049455;28;20041;-47
2023/04/19 00:56:01;;;;;;;14.13;5.50;;;;;;;8.73;76.27;102128.53;5050384;28;20057;-47
2023/04/19 00:58:30;;;;;;;12.48;5.28;;;;;;;8.71;76.20;102132.72;5050185;28;20047;-47
2023/04/19 01:00:57;;;;;;;24.63;6.10;;;;;;;8.69;76.30;102127.47;5049445;28;20055;-46
2023/04/19 01:03:26;;;;;;;14.00;5.53;;;;;;;8.66;76.09;102122.56;5048858;28;20111;-50
2023/04/19 01:05:53;;;;;;;15.95;5.82;;;;;;;8.65;76.11;102128.38;5053266;28;20135;-48
2023/04/19 01:08:19;;;;;;;16.27;5.18;;;;;;;8.64;75.99;102135.84;5032403;28;20052;-47
2023/04/19 01:10:46;;;;;;;17.35;6.70;;;;;;;8.62;75.99;102129.81;5050053;28;20041;-47
2023/04/19 01:13:13;;;;;;;12.00;6.03;;;;;;;8.61;75.96;102132.84;5049308;28;20044;-47
2023/04/19 01:15:39;;;;;;;12.82;4.80;;;;;;;8.60;75.88;102125.69;5049600;28;20041;-48
2023/04/19 01:18:06;;;;;;;18.02;5.03;;;;;;;8.57;75.69;102129.88;5049585;28;20053;-49
2023/04/19 01:20:33;;;;;;;17.20;5.47;;;;;;;8.55;75.67;102123.84;5050014;28;20048;-48
2023/04/19 01:23:00;;;;;;;15.63;6.70;;;;;;;8.53;75.74;102142.63;5048832;28;20045;-52
2023/04/19 01:25:26;;;;;;;14.20;6.35;;;;;;;8.52;75.68;102143.75;5047369;28;20052;-47
2023/04/19 01:27:53;;;;;;;19.67;7.57;;;;;;;8.49;75.71;102141.59;5048810;28;20049;-47
2023/04/19 01:30:20;;;;;;;20.08;5.57;;;;;;;8.47;75.64;102139.09;5047611;28;20653;-49
2023/04/19 01:32:46;;;;;;;13.93;7.43;;;;;;;8.46;75.71;102140.25;5045618;28;20044;-47
2023/04/19 01:35:13;;;;;;;14.88;6.35;;;;;;;8.46;75.76;102143.00;5039818;28;20068;-55
2023/04/19 01:37:40;;;;;;;19.90;6.93;;;;;;;8.44;75.71;102144.41;5043168;28;20495;-47
2023/04/19 01:40:07;;;;;;;18.35;6.93;;;;;;;8.44;75.68;102144.41;5049088;28;20461;-47
2023/04/19 01:42:34;;;;;;;15.07;6.90;;;;;;;8.41;75.76;102140.31;5048523;28;20033;-51
2023/04/19 01:45:01;;;;;;;14.95;6.07;;;;;;;8.41;75.92;102145.00;5049733;28;20045;-48
2023/04/19 01:47:27;;;;;;;10.70;5.28;;;;;;;8.39;76.02;102137.00;5030112;28;20140;-50
2023/04/19 01:49:54;;;;;;;22.08;6.85;;;;;;;8.36;76.23;102143.16;5049267;28;20033;-48
2023/04/19 01:52:21;;;;;;;23.25;6.63;;;;;;;8.35;76.25;102129.63;5039763;28;20411;-46
2023/04/19 01:54:47;;;;;;;16.25;6.13;;;;;;;8.33;76.26;102129.09;5049527;28;20383;-51
2023/04/19 01:57:15;;;;;;;19.10;5.50;;;;;;;8.30;76.17;102126.94;5049590;28;20047;-49
2023/04/19 01:59:42;;;;;;;16.10;5.25;;;;;;;8.30;76.36;102126.94;5049431;28;20494;-48
2023/04/19 02:02:08;;;;;;;14.10;5.60;;;;;;;8.28;76.56;102123.66;5047068;28;20061;-46
2023/04/19 02:04:36;;;;;;;12.50;6.13;;;;;;;8.26;76.74;102114.84;5047762;28;20045;-47
2023/04/19 02:07:04;;;;;;;16.02;6.15;;;;;;;8.25;76.81;102115.94;5049253;28;20375;-47
2023/04/19 02:09:35;;;;;;;14.68;5.25;;;;;;;8.23;76.73;102121.78;5049252;28;20045;-48
2023/04/19 02:12:02;;;;;;;19.00;5.90;;;;;;;8.22;77.00;102113.78;5048655;28;20127;-47
2023/04/19 02:14:29;;;;;;;13.55;6.55;;;;;;;8.19;77.18;102089.53;5047906;28;20148;-46
2023/04/19 02:16:56;;;;;;;14.13;6.25;;;;;;;8.18;77.36;102112.75;5048066;28;20045;-47
2023/04/19 02:19:23;;;;;;;13.55;6.03;;;;;;;8.16;77.24;102117.69;5048878;28;20044;-49
2023/04/19 02:21:50;;;;;;;14.27;6.28;;;;;;;8.13;77.38;102116.34;5040205;28;20175;-47
2023/04/19 02:24:17;;;;;;;16.92;6.35;;;;;;;8.11;77.29;102106.75;5046459;28;20033;-49
2023/04/19 02:26:43;;;;;;;18.55;6.63;;;;;;;8.09;77.63;102108.97;5048598;28;20048;-47
2023/04/19 02:29:10;;;;;;;15.05;6.03;;;;;;;8.09;77.68;102100.69;5048250;28;20044;-46
2023/04/19 02:31:37;;;;;;;19.27;7.25;;;;;;;8.06;77.67;102101.28;5048205;28;20059;-47
2023/04/19 02:34:03;;;;;;;23.45;7.43;;;;;;;8.05;77.58;102096.91;5048287;28;20495;-46
2023/04/19 02:36:30;;;;;;;15.40;7.13;;;;;;;8.04;77.59;102089.75;5030420;28;20546;-48
2023/04/19 02:38:58;;;;;;;16.92;7.63;;;;;;;8.02;77.67;102086.47;5047158;28;20049;-46
2023/04/19 02:41:24;;;;;;;18.55;7.20;;;;;;;7.98;77.75;102083.47;5048619;28;20045;-47
2023/04/19 02:43:51;;;;;;;17.85;7.50;;;;;;;7.95;77.76;102079.38;5047670;28;20040;-47
2023/04/19 02:46:18;;;;;;;14.80;7.70;;;;;;;7.94;77.64;102069.44;5047289;28;20621;-52
2023/04/19 02:48:45;;;;;;;21.48;9.10;;;;;;;7.93;77.87;102073.31;5048340;28;20473;-47
2023/04/19 02:51:16;;;;;;;14.45;7.22;;;;;;;7.92;77.75;102088.22;5048262;28;20053;-46
2023/04/19 02:53:43;;;;;;;19.73;8.98;;;;;;;7.90;77.75;102084.94;5057627;28;20083;-46
2023/04/19 02:56:09;;;;;;;17.42;7.32;;;;;;;7.90;77.56;102078.59;5051020;28;20110;-47
2023/04/19 02:58:36;;;;;;;17.15;9.40;;;;;;;7.87;77.52;102085.53;5045023;28;20433;-46
2023/04/19 03:01:03;;;;;;;20.45;8.45;;;;;;;7.87;77.43;102062.66;5068046;22;20044;-48
2023/04/19 03:03:30;;;;;;;19.60;9.02;;;;;;;7.86;77.53;102067.34;5048673;28;20048;-48
2023/04/19 03:05:57;;;;;;;19.38;9.45;;;;;;;7.85;77.38;102059.38;5052460;28;20095;-47
2023/04/19 03:08:24;;;;;;;16.73;9.40;;;;;;;7.85;77.50;102060.19;5052710;28;20056;-49
2023/04/19 03:10:50;;;;;;;18.55;10.70;;;;;;;7.83;77.37;102062.44;5051734;28;20049;-51
2023/04/19 03:13:17;;;;;;;24.92;9.68;;;;;;;7.80;77.73;102043.72;5045228;28;20048;-48
2023/04/19 03:15:43;;;;;;;21.80;9.25;;;;;;;7.77;77.87;102047.06;5050430;28;20759;-47
2023/04/19 03:18:10;;;;;;;23.77;8.75;;;;;;;7.78;77.78;102043.16;5047688;28;20056;-54
2023/04/19 03:20:37;;;;;;;21.73;9.75;;;;;;;7.76;77.66;102047.34;5038308;28;20049;-46
2023/04/19 03:23:03;;;;;;;20.50;9.27;;;;;;;7.73;77.89;102046.00;5050856;28;20049;-49
2023/04/19 03:25:32;;;;;;;19.25;9.07;;;;;;;7.73;77.95;102050.72;5033611;28;20147;-47
2023/04/19 03:27:58;;;;;;;21.02;9.82;;;;;;;7.73;77.83;102051.50;5046535;28;20512;-52
2023/04/19 03:30:25;;;;;;;15.23;8.95;;;;;;;7.72;77.89;102041.63;5046041;28;20099;-47
2023/04/19 03:32:52;;;;;;;21.63;10.10;;;;;;;7.73;77.99;102051.50;5046441;28;20148;-53
2023/04/19 03:35:19;;;;;;;20.73;9.00;;;;;;;7.73;77.97;102061.75;5048678;28;20049;-46
2023/04/19 03:37:46;;;;;;;19.10;10.13;;;;;;;7.73;77.97;102051.50;5044689;28;20043;-47
2023/04/19 03:40:13;;;;;;;15.30;9.07;;;;;;;7.73;78.14;102042.44;5050536;28;20052;-50
2023/04/19 03:42:39;;;;;;;23.33;8.23;;;;;;;7.72;78.21;102049.88;5050039;28;20379;-48
2023/04/19 03:45:06;;;;;;;19.98;8.85;;;;;;;7.72;78.19;102057.31;5047931;28;20053;-47
2023/04/19 03:47:33;;;;;;;22.75;9.80;;;;;;;7.73;78.20;102053.47;5045954;28;20749;-47
2023/04/19 03:50:00;;;;;;;21.85;9.18;;;;;;;7.74;78.35;102068.88;5044593;28;20401;-51
2023/04/19 03:52:26;;;;;;;18.10;8.90;;;;;;;7.71;78.44;102056.50;5045998;28;20395;-46
2023/04/19 03:54:53;;;;;;;22.13;10.32;;;;;;;7.72;78.41;102074.69;5050600;28;20169;-50
2023/04/19 03:57:21;;;;;;;23.38;10.23;;;;;;;7.73;78.45;102076.31;5051255;28;20418;-50
2023/04/19 03:59:47;;;;;;;15.00;9.65;;;;;;;7.74;78.56;102075.22;5050552;28;20490;-47
2023/04/19 04:02:14;;;;;;;15.85;9.50;;;;;;;7.73;78.78;102072.75;5050265;28;20103;-47
2023/04/19 04:04:41;;;;;;;22.08;9.93;;;;;;;7.73;78.81;102067.25;5051019;28;20127;-46
2023/04/19 04:07:08;;;;;;;18.83;9.57;;;;;;;7.73;78.94;102059.78;5051169;28;20083;-50
2023/04/19 04:09:35;;;;;;;20.10;9.30;;;;;;;7.71;79.05;102056.50;5037667;28;20421;-48
2023/04/19 04:12:01;;;;;;;27.77;10.68;;;;;;;7.71;79.95;102047.41;5050879;28;20445;-50
2023/04/19 04:14:28;;;;;;;23.90;10.27;;;;;;;7.71;79.74;102053.75;5049807;28;20434;-46
2023/04/19 04:16:55;;;;;;;21.77;10.07;;;;;;;7.72;79.85;102066.44;5047285;28;20387;-47
2023/04/19 04:19:21;;;;;;;17.92;9.98;;;;;;;7.73;79.91;102059.78;5043333;28;20053;-46
2023/04/19 04:21:48;;;;;;;21.25;10.20;;;;;;;7.74;80.28;102069.69;5045033;28;20140;-47
2023/04/19 04:24:16;;;;;;;19.75;10.15;;;;;;;7.75;80.37;102065.84;5049159;28;20040;-47
2023/04/19 04:26:44;;;;;;;26.58;11.45;;;;;;;7.78;80.72;102065.22;5049838;28;20501;-47
2023/04/19 04:29:12;;;;;;;23.13;10.63;;;;;;;7.81;80.60;102064.63;5045334;28;20078;-51
2023/04/19 04:31:39;;;;;;;30.80;11.38;;;;;;;7.85;81.07;102070.41;5047129;28;20210;-47
2023/04/19 04:34:07;;;;;;;21.83;9.25;;;;;;;7.87;80.65;102066.22;5045403;28;20052;-46
2023/04/19 04:36:37;;;;;;;23.33;10.63;;;;;;;7.88;81.20;102069.81;5048977;28;20045;-47
2023/04/19 04:39:05;;;;;;;22.95;11.48;;;;;;;7.87;81.12;102052.44;5048975;28;20514;-49
2023/04/19 04:41:31;;;;;;;24.90;11.10;;;;;;;7.87;81.09;102055.19;5049165;28;20047;-46
2023/04/19 04:43:59;;;;;;;25.95;12.27;;;;;;;7.86;81.04;102053.53;5048089;28;20041;-47
2023/04/19 04:46:37;;;;;;;23.48;11.98;;;;;;;7.85;81.40;102049.16;5045532;28;20029;-47
2023/04/19 04:49:05;;;;;;;24.80;10.00;;;;;;;7.84;81.36;102058.53;5043440;28;20830;-48
2023/04/19 04:51:32;;;;;;;33.45;10.38;;;;;;;7.82;81.28;102055.28;5049889;28;20510;-50
2023/04/19 04:53:58;;;;;;;27.23;10.95;;;;;;;7.82;81.29;102065.47;5051016;28;20095;-47
2023/04/19 04:56:25;;;;;;;22.05;9.35;;;;;;;7.81;81.29;102059.13;5046574;28;20052;-46
2023/04/19 04:58:52;;;;;;;28.67;12.27;;;;;;;7.81;81.27;102077.63;5048238;28;20032;-47
2023/04/19 05:01:20;;;;;;;23.52;11.90;;;;;;;7.82;81.19;102082.00;5043587;28;20057;-50
2023/04/19 05:03:47;;;;;;;24.95;10.75;;;;;;;7.85;81.43;102085.00;5046847;28;20512;-48
2023/04/19 05:06:14;;;;;;;22.52;10.63;;;;;;;7.87;81.33;102084.69;5050613;28;20055;-47
2023/04/19 05:08:41;;;;;;;21.48;9.07;;;;;;;7.90;81.28;102073.09;5047940;28;20406;-51
2023/04/19 05:11:07;;;;;;;25.30;11.00;;;;;;;7.92;81.31;102074.44;5042304;28;20431;-50
2023/04/19 05:13:34;;;;;;;21.05;9.65;;;;;;;7.93;81.40;102078.84;5048442;28;20120;-46
2023/04/19 05:16:01;;;;;;;20.17;10.52;;;;;;;7.95;81.33;102078.53;5043560;28;20723;-47
2023/04/19 05:18:28;;;;;;;27.23;9.68;;;;;;;7.97;81.29;102071.59;5044135;28;20057;-50
2023/04/19 05:20:56;;;;;;;19.55;9.95;;;;;;;7.95;81.56;102076.59;5046995;28;20049;-47
2023/04/19 05:23:22;;;;;;;21.77;10.57;;;;;;;7.95;81.54;102082.13;5045110;28;20445;-53
2023/04/19 05:25:49;;;;;;;22.85;10.50;;;;;;;7.92;81.34;102082.72;5046020;28;20044;-46
2023/04/19 05:28:16;;;;;;;18.88;8.95;;;;;;;7.92;81.35;102071.69;5031967;28;20067;-47
2023/04/19 05:30:43;;;;;;;13.40;8.15;;;;;;;7.93;81.24;102076.09;5049817;28;20063;-46
2023/04/19 05:33:10;;;;;;;19.70;8.88;;;;;;;7.93;81.04;102076.09;5048441;28;20064;-47
2023/04/19 05:35:36;;;;;;;14.15;8.63;;;;;;;7.94;81.29;102083.22;5049050;28;20494;-47
2023/04/19 05:38:03;;;;;;;15.77;9.20;;;;;;;7.95;81.14;102086.81;5054063;28;20049;-52
2023/04/19 05:40:30;;;;;;;21.30;9.88;;;;;;;7.96;81.35;102086.53;5049332;28;20110;-48
2023/04/19 05:42:57;;;;;;;17.70;8.73;;;;;;;7.97;81.12;102082.63;5049351;28;20055;-48
2023/04/19 05:45:25;;;;;;;16.50;7.75;;;;;;;7.95;81.17;102087.63;5048945;28;20060;-48
2023/04/19 05:47:51;;;;;;;19.85;8.55;;;;;;;7.95;81.09;102103.34;5049613;28;20402;-47
2023/04/19 05:50:19;;;;;;;16.88;8.52;;;;;;;7.96;81.03;102094.81;5047266;28;20398;-49
2023/04/19 05:52:46;;;;;;;19.70;8.90;;;;;;;7.98;80.89;102086.22;5051441;28;20048;-47
2023/04/19 05:55:13;;;;;;;17.08;9.10;;;;;;;7.99;80.89;102094.19;5049746;28;20049;-49
2023/04/19 05:57:40;;;;;;;20.55;8.70;;;;;;;8.02;80.61;102103.00;5049490;28;20041;-47
2023/04/19 06:00:09;;;;;;;20.50;8.90;;;;;;;8.01;80.95;102087.56;5049420;28;20044;-47
2023/04/19 06:02:36;;;;;;;19.42;8.88;;;;;;;8.04;80.90;102090.56;5048829;28;20056;-48
2023/04/19 06:05:04;;;;;;;17.13;7.45;;;;;;;8.04;80.93;102096.09;5047349;28;20049;-52
2023/04/19 06:07:35;;;;;;;17.52;8.25;;;;;;;8.03;80.92;102080.63;5048324;28;20106;-48
2023/04/19 06:10:12;;;;;;;19.63;7.75;;;;;;;8.02;80.79;102090.03;5030869;28;20057;-47
2023/04/19 06:12:39;;;;;;;20.35;8.05;;;;;;;8.02;80.91;102091.97;5035995;28;20092;-47
2023/04/19 06:15:06;;;;;;;24.20;10.43;;;;;;;8.01;80.89;102077.38;5047976;28;20387;-48
2023/04/19 06:17:33;;;;;;;21.13;9.18;;;;;;;8.02;80.84;102086.47;5048880;28;20063;-49
2023/04/19 06:19:59;;;;;;;17.73;8.85;;;;;;;8.02;80.87;102086.47;5048571;28;20064;-47
2023/04/19 06:22:26;;;;;;;23.45;10.75;;;;;;;8.08;80.91;102088.03;5046416;28;20040;-46
2023/04/19 06:24:53;;;;;;;23.38;8.40;;;;;;;8.10;80.87;102083.06;5044817;28;20148;-49
2023/04/19 06:27:20;;;;;;;14.85;7.72;;;;;;;8.12;80.83;102094.59;5039635;28;20045;-46
2023/04/19 06:29:46;;;;;;;16.48;8.85;;;;;;;8.11;80.63;102096.53;5045991;28;20045;-48
2023/04/19 06:32:16;;;;;;;18.65;7.32;;;;;;;8.13;80.72;102097.06;5043484;28;20064;-48
2023/04/19 06:34:43;;;;;;;13.73;7.72;;;;;;;8.11;80.36;102091.00;5039084;28;20461;-46
2023/04/19 06:37:11;;;;;;;13.45;7.25;;;;;;;8.11;80.23;102092.94;5028915;28;20049;-46
2023/04/19 06:39:37;;;;;;;19.52;7.53;;;;;;;8.10;80.27;102085.81;5041939;28;20061;-52
2023/04/19 06:42:05;;;;;;;17.88;6.88;;;;;;;8.10;80.27;102080.28;5039765;28;20122;-47
2023/04/19 06:44:32;;;;;;;12.68;7.88;;;;;;;8.11;79.96;102074.47;5048229;28;20056;-46
2023/04/19 06:46:59;;;;;;;14.95;7.68;;;;;;;8.12;80.04;102076.13;5030502;28;20056;-47
2023/04/19 06:49:26;;;;;;;13.50;6.80;;;;;;;8.14;80.05;102086.84;5042629;28;20057;-49
2023/04/19 06:51:53;;;;;;;19.38;8.10;;;;;;;8.16;80.01;102065.28;5046687;28;20041;-47
2023/04/19 06:54:20;;;;;;;14.38;6.93;;;;;;;8.17;79.85;102069.72;5061139;28;20049;-53
2023/04/19 06:56:48;;;;;;;14.10;7.13;;;;;;;8.18;79.73;102063.09;5048481;28;20132;-47
2023/04/19 06:59:19;;;;;;;15.70;6.32;;;;;;;8.21;79.78;102062.47;5048258;28;20073;-50
2023/04/19 07:01:46;;;;;;;17.52;7.10;;;;;;;8.22;79.65;102070.47;5046828;28;20053;-53
2023/04/19 07:04:14;;;;;;;15.32;6.70;;;;;;;8.27;79.59;102058.56;5047910;28;20483;-46
2023/04/19 07:06:41;;;;;;;15.60;6.68;;;;;;;8.32;79.63;102066.75;5048655;28;20064;-46
2023/04/19 07:09:08;;;;;;;13.18;6.63;;;;;;;8.32;79.62;102073.09;5046404;28;20383;-52
2023/04/19 07:11:35;;;;;;;22.70;7.85;;;;;;;8.32;79.56;102066.75;5044258;28;20048;-50
2023/04/19 07:14:01;;;;;;;13.20;6.35;;;;;;;8.32;79.43;102069.50;5047144;28;20103;-53
2023/04/19 07:16:28;;;;;;;18.50;8.25;;;;;;;8.33;79.40;102072.00;5021839;28;20072;-48
2023/04/19 07:18:56;;;;;;;16.40;6.63;;;;;;;8.33;79.39;102077.50;5025409;28;20052;-44
2023/04/19 07:21:27;;;;;;;14.73;7.70;;;;;;;8.36;79.41;102074.16;5045140;28;20037;-45
2023/04/19 07:23:54;;;;;;;15.40;7.13;;;;;;;8.40;79.41;102080.72;5040960;28;20064;-47
2023/04/19 07:26:21;;;;;;;12.38;6.05;;;;;;;8.40;79.33;102077.94;5030240;28;20060;-47
2023/04/19 07:28:51;;;;;;;16.08;7.32;;;;;;;8.44;79.43;102092.81;5045528;28;20053;-52
2023/04/19 07:31:18;;;;;;;17.10;7.63;;;;;;;8.46;79.38;102081.47;5045015;28;20048;-46
2023/04/19 07:33:45;;;;;;;16.00;7.38;;;;;;;8.49;79.54;102102.94;5046346;28;20052;-48
2023/04/19 07:36:12;;;;;;;18.02;6.47;;;;;;;8.47;79.47;102078.38;5036282;28;20513;-46
2023/04/19 07:38:38;;;;;;;12.65;7.05;;;;;;;8.49;79.36;102086.38;5041665;28;20127;-46
2023/04/19 07:41:05;;;;;;;13.27;6.90;;;;;;;8.50;79.36;102083.31;5041479;28;20407;-46
2023/04/19 07:43:32;;;;;;;18.98;7.30;;;;;;;8.53;79.50;102079.97;5045853;28;20494;-48
2023/04/19 07:45:59;;;;;;;22.73;8.82;;;;;;;8.53;79.42;102081.91;5049156;28;20491;-47
2023/04/19 07:48:26;;;;;;;13.57;7.63;;;;;;;8.55;79.57;102068.63;5043253;28;20113;-48
2023/04/19 07:50:52;;;;;;;16.00;7.85;;;;;;;8.57;79.50;102074.66;5045822;28;20072;-46
2023/04/19 07:53:19;;;;;;;26.52;7.95;;;;;;;8.59;79.29;102072.44;5031085;28;20049;-46
2023/04/19 07:55:46;;;;;;;22.08;7.97;;;;;;;8.65;79.54;102078.69;5044182;28;20095;-47
2023/04/19 07:58:12;;;;;;;13.75;6.63;;;;;;;8.71;79.36;102078.28;5045644;28;20045;-45
2023/04/19 08:00:39;;;;;;;25.30;9.23;;;;;;;8.72;79.28;102063.38;5044474;28;20037;-45
2023/04/19 08:03:07;;;;;;;31.00;9.48;;;;;;;8.74;79.44;102066.66;5045762;28;20041;-46
2023/04/19 08:05:34;;;;;;;14.40;6.40;;;;;;;8.81;79.48;102063.53;5041527;28;20143;-46
2023/04/19 08:08:01;;;;;;;15.05;8.52;;;;;;;8.85;79.37;102062.59;5045722;28;20059;-48
2023/04/19 08:10:29;;;;;;;17.98;8.30;;;;;;;8.89;79.07;102069.19;5046926;28;20064;-49
2023/04/19 08:12:56;;;;;;;25.75;7.97;;;;;;;8.97;78.99;102070.44;5048775;28;20156;-48
2023/04/19 08:15:33;;;;;;;19.85;9.07;;;;;;;9.05;79.13;102078.03;5042388;28;20099;-49
2023/04/19 08:18:20;;;;;;;12.35;7.90;;;;;;;9.18;79.15;102069.78;5048374;28;20045;-45
2023/04/19 08:20:47;;;;;;;25.13;8.18;;;;;;;9.28;78.99;102065.19;5032245;28;20418;-49
2023/04/19 08:23:14;;;;;;;20.67;8.73;;;;;;;9.41;79.23;102070.72;5025631;28;20128;-49
2023/04/19 08:25:52;;;;;;;13.50;6.65;;;;;;;9.54;78.55;102069.09;5024554;28;20037;-49
2023/04/19 08:28:19;;;;;;;13.45;7.88;;;;;;;9.58;78.48;102072.91;5030038;28;20053;-49
2023/04/19 08:30:45;;;;;;;19.17;9.25;;;;;;;9.64;78.53;102079.97;5029983;28;20036;-48
2023/04/19 08:33:12;;;;;;;17.52;8.20;;;;;;;9.73;78.56;102078.13;5007734;28;20061;-52
2023/04/19 08:35:40;;;;;;;18.55;8.05;;;;;;;9.77;78.47;102079.97;5035351;28;20052;-50
2023/04/19 08:38:08;;;;;;;22.35;8.95;;;;;;;9.71;78.52;102085.91;5031634;28;20056;-47
2023/04/19 08:40:40;;;;;;;13.63;8.65;;;;;;;9.67;78.51;102085.69;5029190;28;20041;-51
2023/04/19 08:43:07;;;;;;;15.10;9.00;;;;;;;9.67;78.58;102087.63;5034984;28;20043;-55
2023/04/19 08:45:35;;;;;;;21.83;9.05;;;;;;;9.67;78.88;102080.16;5033131;28;20090;-54
2023/04/19 08:48:03;;;;;;;22.20;8.90;;;;;;;9.69;78.61;102088.16;5032280;28;20053;-48
2023/04/19 08:50:31;;;;;;;20.27;8.45;;;;;;;9.65;78.76;102087.97;5042778;28;20080;-49
2023/04/19 08:53:15;;;;;;;26.73;11.25;;;;;;;9.62;78.87;102076.69;5043271;28;20131;-46
2023/04/19 08:55:59;;;;;;;21.52;8.38;;;;;;;9.64;78.90;102085.47;5038710;28;20063;-48
2023/04/19 08:58:31;;;;;;;20.67;8.70;;;;;;;9.67;78.92;102087.63;5039046;28;20072;-51
2023/04/19 09:01:18;;;;;;;22.73;9.38;;;;;;;9.69;78.82;102093.69;5024516;28;20052;-49
2023/04/19 09:04:04;;;;;;;28.20;9.93;;;;;;;9.69;78.91;102093.69;5041162;28;20052;-48
2023/04/19 09:06:51;;;;;;;23.17;8.32;;;;;;;9.72;78.93;102090.31;5040867;28;20057;-50
2023/04/19 09:09:18;;;;;;;19.60;8.93;;;;;;;9.76;78.81;102099.66;5040721;28;20068;-49
2023/04/19 09:11:48;;;;;;;17.13;10.27;;;;;;;9.71;78.84;102096.97;5038753;28;20705;-50
2023/04/19 09:14:16;;;;;;;26.08;10.45;;;;;;;9.65;78.91;102092.66;5037891;28;20106;-50
2023/04/19 09:16:44;;;;;;;27.55;10.80;;;;;;;9.64;78.90;102096.53;5039216;28;20037;-47
2023/04/19 09:19:11;;;;;;;23.17;9.40;;;;;;;9.64;79.00;102086.31;5039860;28;20459;-47
2023/04/19 09:21:51;;;;;;;26.25;9.27;;;;;;;9.60;78.91;102095.53;5040076;28;20049;-49
2023/04/19 09:24:18;;;;;;;29.50;10.02;;;;;;;9.58;79.00;102092.25;5036647;28;20060;-50
2023/04/19 09:26:53;;;;;;;27.38;9.90;;;;;;;9.62;79.21;102087.75;5041647;28;20075;-49
2023/04/19 09:29:20;;;;;;;26.40;9.90;;;;;;;9.64;79.14;102091.84;5040661;28;20053;-47
2023/04/19 09:31:57;;;;;;;23.70;9.60;;;;;;;9.66;79.10;102099.84;5038147;28;20045;-46
2023/04/19 09:34:24;;;;;;;24.77;9.60;;;;;;;9.61;79.03;102084.16;5037045;28;20060;-52
2023/04/19 09:36:51;;;;;;;22.40;9.65;;;;;;;9.64;79.16;102088.25;5040535;28;20052;-48
2023/04/19 09:39:37;;;;;;;20.45;10.07;;;;;;;9.63;79.21;102090.22;5038847;28;20880;-52
2023/04/19 09:42:03;;;;;;;17.63;9.10;;;;;;;9.69;79.21;102088.16;5038239;28;20041;-49
2023/04/19 09:44:32;;;;;;;17.45;8.50;;;;;;;9.71;79.13;102091.44;5037939;28;20486;-50
2023/04/19 09:47:23;;;;;;;26.55;10.00;;;;;;;9.70;79.19;102095.31;5037757;28;20514;-47
2023/04/19 09:50:08;;;;;;;24.92;9.80;;;;;;;9.74;79.24;102082.53;5041218;28;20066;-49
2023/04/19 09:52:49;;;;;;;22.30;9.82;;;;;;;9.75;79.36;102090.53;5040599;28;20578;-47
2023/04/19 09:55:18;;;;;;;19.83;8.40;;;;;;;9.82;79.40;102093.69;5039539;28;20066;-52
2023/04/19 09:57:47;;;;;;;27.35;10.48;;;;;;;9.84;79.25;102085.09;5037167;28;20041;-51
2023/04/19 10:00:15;;;;;;;23.67;10.77;;;;;;;9.79;79.39;102088.75;5037740;28;20088;-47
2023/04/19 10:02:43;;;;;;;27.25;13.25;;;;;;;9.74;79.40;102093.59;5037540;28;20069;-51
2023/04/19 10:05:11;;;;;;;22.00;9.15;;;;;;;9.75;79.52;102086.94;5038706;28;20167;-48
2023/04/19 10:07:48;;;;;;;24.63;10.88;;;;;;;9.70;79.54;102085.09;5035542;28;20126;-47
2023/04/19 10:10:19;;;;;;;16.77;9.77;;;;;;;9.70;79.73;102087.03;5035683;28;20160;-51
2023/04/19 10:12:53;;;;;;;17.00;8.88;;;;;;;9.72;79.78;102088.38;5022705;28;20094;-48
2023/04/19 10:15:24;;;;;;;23.00;11.25;;;;;;;9.77;79.81;102091.03;5034702;28;20124;-47
2023/04/19 10:17:55;;;;;;;25.45;10.13;;;;;;;9.81;79.69;102091.25;5037957;28;20406;-47
2023/04/19 10:20:29;;;;;;;19.15;8.98;;;;;;;9.82;79.67;102092.91;5039952;28;20059;-47
2023/04/19 10:22:56;;;;;;;17.02;9.18;;;;;;;9.82;79.70;102087.38;5033083;28;20060;-53
2023/04/19 10:25:29;;;;;;;32.85;10.05;;;;;;;9.87;79.83;102083.66;5036596;28;20053;-47
2023/04/19 10:27:56;;;;;;;23.25;9.43;;;;;;;9.98;79.70;102083.13;5040247;28;20068;-50
2023/04/19 10:30:27;;;;;;;26.92;9.55;;;;;;;10.13;79.56;102076.50;5040582;28;20044;-51
2023/04/19 10:32:55;;;;;;;21.95;8.95;;;;;;;10.21;79.45;102078.53;5036349;28;20838;-49
2023/04/19 10:35:24;;;;;;;32.50;12.93;;;;;;;10.31;79.58;102079.13;5041364;28;20055;-48
2023/04/19 10:38:06;;;;;;;26.55;10.13;;;;;;;10.48;79.51;102072.13;5040293;28;20052;-48
2023/04/19 10:40:51;;;;;;;24.55;9.73;;;;;;;10.68;79.01;102066.09;5040209;28;20055;-50
2023/04/19 10:43:19;;;;;;;25.88;10.35;;;;;;;10.79;78.88;102067.47;5017938;28;20065;-51
2023/04/19 10:45:46;;;;;;;21.08;10.80;;;;;;;10.97;78.70;102058.16;5037459;28;20103;-52
2023/04/19 10:48:25;;;;;;;25.13;12.05;;;;;;;11.06;78.25;102055.44;5036087;28;20045;-51
2023/04/19 10:50:59;;;;;;;19.75;9.90;;;;;;;11.13;78.61;102073.25;5038983;28;20067;-51
2023/04/19 10:53:45;;;;;;;20.75;10.88;;;;;;;11.14;78.58;102069.38;5037617;28;20032;-54
2023/04/19 10:56:12;;;;;;;30.08;11.30;;;;;;;11.10;78.49;102071.13;5035533;28;20056;-52
2023/04/19 10:59:01;;;;;;;21.67;11.02;;;;;;;10.96;78.13;102073.16;5039274;28;20072;-52
2023/04/19 11:01:38;;;;;;;21.80;11.50;;;;;;;10.91;78.53;102060.22;5030769;28;20053;-47
2023/04/19 11:04:07;;;;;;;20.88;9.65;;;;;;;10.85;78.31;102046.84;5035832;28;20110;-49
2023/04/19 11:06:36;;;;;;;26.10;11.77;;;;;;;10.83;78.36;102074.00;5033256;28;20056;-50
2023/04/19 11:09:05;;;;;;;22.92;12.68;;;;;;;10.81;78.36;102071.56;5034072;28;20727;-51
2023/04/19 11:11:34;;;;;;;26.05;12.52;;;;;;;10.79;78.27;102073.03;5039946;28;20659;-47
2023/04/19 11:14:03;;;;;;;30.08;12.18;;;;;;;10.73;78.04;102066.78;5038686;28;20374;-49
2023/04/19 11:16:31;;;;;;;22.40;12.05;;;;;;;10.76;78.15;102073.66;5033722;28;20061;-53
2023/04/19 11:19:15;;;;;;;32.63;12.55;;;;;;;10.81;78.28;102087.38;5025279;28;20111;-47
2023/04/19 11:21:47;;;;;;;27.50;12.95;;;;;;;10.71;78.23;102071.00;5042038;28;20048;-48
2023/04/19 11:24:17;;;;;;;25.75;11.57;;;;;;;10.63;78.31;102074.53;5042220;28;20053;-52
2023/04/19 11:26:45;;;;;;;29.48;12.23;;;;;;;10.65;78.71;102077.78;5045845;28;20076;-53
2023/04/19 11:29:13;;;;;;;27.88;12.52;;;;;;;10.73;78.67;102077.03;5043915;28;20405;-48